Arvada, CO (80002)

2:34 PM MDT on March 30, 2015 (GMT -0600)
Hackberry Hill | | Change Station
CLOSE
Current Station
Personal Weather Station
Location: Arvada, CO
Elevation: 5548 ft
Nearby Weather Stations

Elev 5548 ft 39.82 °N, 105.08 °W | Updated 1 minute ago

Clear
Clear
81.1 °F
Feels Like 79 °F
N
1.6
Wind Variable Wind from South

Today
High -- | Low -- °F
--% Chance of Precip.
Yesterday
High -- | Low -- °F
Precip. -- in
6:48 AM 7:22 PM
Waxing Gibbous, 82% visible
Pressure 30.14 in
Visibility 70.0 miles
Clouds Few 10000 ft
Heat Index 79 °F
Dew Point 19 °F
Humidity 10%
Rainfall 0.00 in
Snow Depth Not available.
UV 8 out of 12
Pollen 11.80 out of 12
Air Quality Not available.
Flu Activity Not available.
METAR KBJC 301947Z 35008KT 70SM FEW100 22/M07 A3014

More Conditions Fewer Conditions

Pressure 30.14 in
Visibility 70.0 miles
Clouds Few 10000 ft
Heat Index 79 °F
Dew Point 19 °F
Humidity 10%
Rainfall 0.00 in
Snow Depth Not available.
UV 8 out of 12
Pollen 11.80 out of 12
Air Quality Not available.
Flu Activity Not available.
METAR KBJC 301947Z 35008KT 70SM FEW100 22/M07 A3014

More Conditions Fewer Conditions

10-Day Weather Forecast

Almanac

Astronomy

Mar. 30, 2015 Rise Set
Actual Time
Civil Twilight
Nautical Twilight
Astronomical Twilight
Moon
Length of Visible Light
Length of Day
Tomorrow will be .
, % of the Moon is Illuminated

Today's Extremes

State Highs State Lows

Community

WunderPhotos

Upload Photos

1,809,582 photos uploaded!

WunderBlogs® & News

Nearby

Air Quality

  Air Quality AQ Index Pollutant
Not available.

Snow Depth

Station Depth Elevation

Earthquake Activity

City Distance Mag. Time & Date
Minimum magnitude displayed is 2.5.

Coastal Water Temperatures

Place Temperature

Stations

Nearby Weather Stations

Station Location Temp. Windchill Dew Point Humidity Wind Precip. Elev Updated Type